Weather at Police & Public Safety Building Heliport [CLOSED]

Public forecast

Using degrees Fahrenheit for public forecast. Weather courtesy of forecast.io.

Closest aviation weather report (METAR) to Police & Public Safety Building Heliport

Closest report is Phoenix Sky Harbor International Airport, 3.9 nm (7.2 km) ESE.

2024/07/14 15:51 (retrieved 48 minutes ago)

KPHX 141551Z 24005KT 10SM FEW090 FEW120 BKN250 34/19 A3001 RMK AO2 SLP139 T03440194

Closest aviation forecast (TAF) to Police & Public Safety Building Heliport

Closest forecast is Phoenix Sky Harbor International Airport, 3.9 nm (7.2 km) ESE.

2024/07/14 15:00 Ammendment (retrieved 2 hours ago)

TAF AMD KPHX 141458Z 1415/1518 27009KT P6SM FEW120 BKN250 FM150400 03015G25KT P6SM SCT100 BKN150 FM150600 30008KT P6SM SCT150 SCT250 FM151100 VRB04KT P6SM SCT150 SCT250 FM151500 27007KT P6SM FEW150 SCT250